createdAt,value
2019-05-29T00:00:48.340Z,2.10
2019-05-29T00:03:18.538Z,2.15
2019-05-29T00:05:47.167Z,2.00
2019-05-29T00:08:15.593Z,2.15
2019-05-29T00:10:44.029Z,1.72
2019-05-29T00:13:12.476Z,1.92
2019-05-29T00:15:40.903Z,1.95
2019-05-29T00:18:12.479Z,1.80
2019-05-29T00:20:41.491Z,1.60
2019-05-29T00:23:10.508Z,2.42
2019-05-29T00:25:39.365Z,2.02
2019-05-29T00:28:08.469Z,2.10
2019-05-29T00:30:37.351Z,1.70
2019-05-29T00:33:06.142Z,1.87
2019-05-29T00:35:34.579Z,1.65
2019-05-29T00:38:03.087Z,1.92
2019-05-29T00:40:31.620Z,1.80
2019-05-29T00:43:00.389Z,1.75
2019-05-29T00:45:28.813Z,2.05
2019-05-29T00:47:57.252Z,1.70
2019-05-29T00:50:25.680Z,1.92
2019-05-29T00:52:54.103Z,2.08
2019-05-29T00:55:22.819Z,1.72
2019-05-29T00:57:51.609Z,1.60
2019-05-29T01:00:20.740Z,2.15
2019-05-29T01:02:49.232Z,2.00
2019-05-29T01:05:18.196Z,2.00
2019-05-29T01:07:46.693Z,1.75
2019-05-29T01:10:36.009Z,1.92
2019-05-29T01:13:04.445Z,1.85
2019-05-29T01:15:33.238Z,2.15
2019-05-29T01:18:01.720Z,2.08
2019-05-29T01:20:30.244Z,2.35
2019-05-29T01:22:58.982Z,2.20
2019-05-29T01:25:27.432Z,2.10
2019-05-29T01:27:55.886Z,1.95
2019-05-29T01:30:24.332Z,2.12
2019-05-29T01:32:53.047Z,2.20
2019-05-29T01:35:22.066Z,2.10
2019-05-29T01:37:50.694Z,2.30
2019-05-29T01:40:24.666Z,1.92
2019-05-29T01:42:50.174Z,2.15
2019-05-29T01:45:19.436Z,2.12
2019-05-29T01:47:48.005Z,2.15
2019-05-29T01:50:17.680Z,2.52
2019-05-29T01:52:46.633Z,2.10
2019-05-29T01:55:15.793Z,2.65
2019-05-29T01:57:44.271Z,2.50
2019-05-29T02:00:15.681Z,2.45
2019-05-29T02:02:44.262Z,2.22
2019-05-29T02:05:13.171Z,2.47
2019-05-29T02:07:41.685Z,2.02
2019-05-29T02:10:10.266Z,2.40
2019-05-29T02:12:38.747Z,2.27
2019-05-29T02:15:23.078Z,2.35
2019-05-29T02:17:39.434Z,2.20
2019-05-29T02:20:09.029Z,2.60
2019-05-29T02:22:37.899Z,2.70
2019-05-29T02:25:07.346Z,2.95
2019-05-29T02:27:36.193Z,2.55
2019-05-29T02:30:09.647Z,2.42
2019-05-29T02:32:38.371Z,2.90
2019-05-29T02:35:07.566Z,2.77
2019-05-29T02:37:36.030Z,3.05
2019-05-29T02:40:06.471Z,3.15
2019-05-29T02:42:35.752Z,3.40
2019-05-29T02:45:06.420Z,2.65
2019-05-29T02:47:34.855Z,2.80
2019-05-29T02:50:05.087Z,2.98
2019-05-29T02:52:33.529Z,2.98
2019-05-29T02:55:02.322Z,2.67
2019-05-29T02:57:31.045Z,2.92
2019-05-29T03:00:00.000Z,2.92
2019-05-29T03:02:30.201Z,3.35
2019-05-29T03:04:58.948Z,2.80
2019-05-29T03:07:28.527Z,3.47
2019-05-29T03:09:57.515Z,2.80
2019-05-29T03:12:27.098Z,3.10
2019-05-29T03:14:55.672Z,2.60
2019-05-29T03:17:25.637Z,3.20
2019-05-29T03:19:54.273Z,3.20
2019-05-29T03:22:24.088Z,2.70
2019-05-29T03:24:52.623Z,3.33
2019-05-29T03:27:21.525Z,3.30
2019-05-29T03:29:50.327Z,3.65
2019-05-29T03:32:19.111Z,3.37
2019-05-29T03:34:48.313Z,3.40
2019-05-29T03:37:17.025Z,2.80
2019-05-29T03:39:45.790Z,3.25
2019-05-29T03:42:14.254Z,3.60
2019-05-29T03:44:42.751Z,4.20
2019-05-29T03:47:11.293Z,3.55
2019-05-29T03:49:39.794Z,3.52
2019-05-29T03:52:08.262Z,3.58
2019-05-29T03:54:36.686Z,3.47
2019-05-29T03:57:05.499Z,3.70
2019-05-29T03:59:35.332Z,3.80
2019-05-29T04:02:04.095Z,3.25
2019-05-29T04:04:33.537Z,3.25
2019-05-29T04:07:02.549Z,2.72
2019-05-29T04:09:31.351Z,3.20
2019-05-29T04:11:59.909Z,2.45
2019-05-29T04:14:29.694Z,3.08
2019-05-29T04:17:00.613Z,3.00
2019-05-29T04:19:32.017Z,3.40
2019-05-29T04:22:03.500Z,2.77
2019-05-29T04:24:33.927Z,3.10
2019-05-29T04:27:04.173Z,3.10
2019-05-29T04:29:34.221Z,2.83
2019-05-29T04:32:02.833Z,3.30
2019-05-29T04:34:31.725Z,3.02
2019-05-29T04:37:01.449Z,3.08
2019-05-29T04:39:30.603Z,2.72
2019-05-29T04:41:59.246Z,2.60
2019-05-29T04:44:28.792Z,2.47
2019-05-29T04:47:10.101Z,2.80
2019-05-29T04:49:29.275Z,2.45
2019-05-29T04:51:58.028Z,2.42
2019-05-29T04:54:26.466Z,2.20
2019-05-29T04:56:54.992Z,1.85
2019-05-29T04:59:23.493Z,2.02
2019-05-29T05:02:11.578Z,2.25
2019-05-29T05:04:40.013Z,2.00
2019-05-29T05:07:08.474Z,2.27
2019-05-29T05:09:37.568Z,2.08
2019-05-29T05:12:06.129Z,2.17
2019-05-29T05:14:35.455Z,1.90
2019-05-29T05:17:04.206Z,1.90
2019-05-29T05:19:33.899Z,2.00
2019-05-29T05:22:02.517Z,1.72
2019-05-29T05:24:34.172Z,1.77
2019-05-29T05:27:03.063Z,1.72
2019-05-29T05:29:32.136Z,1.90
2019-05-29T05:32:00.628Z,1.95
2019-05-29T05:34:30.456Z,1.90
2019-05-29T05:36:59.358Z,1.80
2019-05-29T05:39:28.184Z,1.70
2019-05-29T05:41:56.946Z,1.90
2019-05-29T05:44:25.734Z,1.85
2019-05-29T05:46:54.162Z,2.10
2019-05-29T05:49:22.614Z,1.60
2019-05-29T05:51:51.046Z,1.55
2019-05-29T05:54:19.777Z,1.72
2019-05-29T05:56:48.571Z,1.75
2019-05-29T05:59:17.021Z,1.60
2019-05-29T06:01:45.462Z,2.02
2019-05-29T06:04:14.333Z,1.72
2019-05-29T06:06:42.766Z,2.20
2019-05-29T06:09:11.509Z,1.95
2019-05-29T06:11:40.425Z,2.00
2019-05-29T06:14:09.205Z,1.80
2019-05-29T06:16:38.640Z,2.27
2019-05-29T06:19:07.493Z,1.30
2019-05-29T06:21:36.710Z,1.70
2019-05-29T06:24:05.491Z,1.70
2019-05-29T06:26:34.831Z,1.80
2019-05-29T06:29:03.420Z,1.67
2019-05-29T06:31:33.215Z,2.00
2019-05-29T06:34:02.105Z,1.95
2019-05-29T06:36:30.541Z,1.92
2019-05-29T06:38:59.269Z,2.12
2019-05-29T06:41:28.117Z,1.77
2019-05-29T06:43:56.971Z,1.70
2019-05-29T06:46:25.397Z,2.00
2019-05-29T06:49:00.310Z,1.80
2019-05-29T06:51:24.098Z,1.80
2019-05-29T06:53:52.543Z,1.67
2019-05-29T06:56:20.977Z,1.50
2019-05-29T06:58:49.712Z,1.82
2019-05-29T07:01:18.206Z,1.77
2019-05-29T07:03:48.026Z,1.70
2019-05-29T07:06:17.114Z,1.85
2019-05-29T07:08:48.394Z,1.80
2019-05-29T07:11:15.741Z,1.45
2019-05-29T07:13:47.546Z,1.80
2019-05-29T07:16:14.363Z,1.77
2019-05-29T07:19:20.485Z,1.85
2019-05-29T07:21:32.318Z,2.00
2019-05-29T07:24:01.078Z,2.02
2019-05-29T07:26:29.778Z,1.57
2019-05-29T07:29:07.971Z,1.80
2019-05-29T07:31:33.170Z,1.85
2019-05-29T07:34:04.930Z,1.50
2019-05-29T07:36:33.628Z,1.62
2019-05-29T07:39:03.720Z,1.37
2019-05-29T07:41:32.249Z,1.85
2019-05-29T07:44:00.681Z,2.02
2019-05-29T07:46:29.150Z,1.72
2019-05-29T07:48:58.009Z,1.80
2019-05-29T07:51:26.798Z,2.10
2019-05-29T07:53:55.313Z,1.85
2019-05-29T07:56:23.774Z,1.65
2019-05-29T07:59:02.563Z,1.77
2019-05-29T08:01:24.008Z,1.80
2019-05-29T08:03:52.802Z,1.70
2019-05-29T08:06:21.689Z,1.82
2019-05-29T08:08:50.128Z,1.80
2019-05-29T08:11:18.660Z,2.02
2019-05-29T08:13:47.748Z,1.72
2019-05-29T08:16:16.227Z,1.92
2019-05-29T08:18:46.121Z,1.70
2019-05-29T08:21:15.134Z,1.55
2019-05-29T08:23:44.355Z,1.77
2019-05-29T08:26:12.914Z,1.32
2019-05-29T08:28:42.810Z,1.50
2019-05-29T08:31:13.470Z,1.60
2019-05-29T08:33:42.808Z,1.80
2019-05-29T08:36:11.434Z,1.55
2019-05-29T08:38:42.547Z,1.80
2019-05-29T08:41:10.365Z,1.75
2019-05-29T08:43:38.817Z,2.00
2019-05-29T08:46:07.338Z,1.60
2019-05-29T08:48:35.777Z,1.60
2019-05-29T08:51:04.634Z,1.80
2019-05-29T08:53:33.113Z,1.82
2019-05-29T08:56:01.645Z,1.50
2019-05-29T08:58:30.435Z,1.50
2019-05-29T09:00:59.221Z,1.70
2019-05-29T09:03:28.014Z,1.42
2019-05-29T09:06:08.422Z,1.98
2019-05-29T09:08:26.926Z,1.80
2019-05-29T09:10:55.930Z,1.70
2019-05-29T09:13:24.368Z,1.55
2019-05-29T09:15:52.808Z,1.65
2019-05-29T09:18:21.777Z,1.45
2019-05-29T09:21:02.890Z,1.40
2019-05-29T09:23:21.013Z,1.72
2019-05-29T09:25:49.589Z,1.57
2019-05-29T09:28:18.701Z,1.60
2019-05-29T09:30:47.126Z,1.52
2019-05-29T09:33:18.108Z,1.47
2019-05-29T09:35:46.061Z,1.20
2019-05-29T09:38:15.697Z,1.55
2019-05-29T09:40:44.666Z,1.50
2019-05-29T09:43:13.425Z,1.60
2019-05-29T09:45:42.315Z,1.95
2019-05-29T09:48:11.145Z,1.70
2019-05-29T09:50:50.329Z,1.65
2019-05-29T09:53:10.214Z,1.47
2019-05-29T09:55:38.651Z,1.40
2019-05-29T09:58:07.378Z,1.32
2019-05-29T10:00:36.206Z,1.27
2019-05-29T10:03:05.177Z,1.75
2019-05-29T10:05:33.629Z,1.57
2019-05-29T10:08:02.491Z,1.60
2019-05-29T10:10:32.351Z,1.50
2019-05-29T10:13:02.734Z,1.25
2019-05-29T10:15:31.327Z,1.67
2019-05-29T10:18:00.691Z,1.60
2019-05-29T10:20:29.499Z,1.50
2019-05-29T10:22:58.940Z,1.30
2019-05-29T10:25:47.334Z,1.52
2019-05-29T10:28:15.782Z,1.80
2019-05-29T10:30:44.468Z,1.30
2019-05-29T10:33:14.354Z,1.30
2019-05-29T10:35:44.516Z,1.35
2019-05-29T10:38:13.547Z,1.85
2019-05-29T10:40:45.512Z,1.40
2019-05-29T10:43:12.454Z,1.65
2019-05-29T10:45:40.914Z,1.75
2019-05-29T10:48:09.795Z,1.60
2019-05-29T10:50:38.526Z,1.60
2019-05-29T10:53:06.967Z,1.37
2019-05-29T10:55:35.704Z,1.60
2019-05-29T10:58:04.142Z,1.80
2019-05-29T11:00:32.880Z,1.42
2019-05-29T11:03:01.680Z,1.50
2019-05-29T11:05:30.192Z,1.17
2019-05-29T11:07:58.639Z,1.15
2019-05-29T11:10:28.376Z,1.15
2019-05-29T11:12:56.869Z,1.05
2019-05-29T11:15:25.338Z,1.20
2019-05-29T11:17:53.826Z,1.15
2019-05-29T11:20:24.208Z,1.20
2019-05-29T11:22:53.665Z,1.35
2019-05-29T11:25:27.467Z,1.20
2019-05-29T11:27:54.484Z,1.27
2019-05-29T11:30:23.666Z,1.25
2019-05-29T11:32:54.646Z,1.20
2019-05-29T11:35:22.369Z,1.40
2019-05-29T11:37:52.349Z,1.07
2019-05-29T11:40:21.874Z,1.27
2019-05-29T11:42:50.878Z,1.30
2019-05-29T11:45:20.146Z,1.32
2019-05-29T11:47:48.596Z,1.27
2019-05-29T11:50:20.074Z,1.55
2019-05-29T11:52:48.483Z,1.30
2019-05-29T11:55:18.157Z,1.60
2019-05-29T11:57:46.618Z,1.10
2019-05-29T12:00:20.470Z,1.02
2019-05-29T12:02:46.223Z,1.07
2019-05-29T12:05:15.463Z,1.52
2019-05-29T12:07:43.922Z,1.02
2019-05-29T12:10:12.841Z,1.27
2019-05-29T12:12:41.397Z,1.10
2019-05-29T12:15:15.095Z,1.17
2019-05-29T12:17:41.266Z,1.30
2019-05-29T12:20:26.951Z,1.27
2019-05-29T12:22:41.145Z,1.22
2019-05-29T12:25:10.397Z,1.32
2019-05-29T12:27:38.836Z,1.05
2019-05-29T12:30:09.620Z,1.47
2019-05-29T12:32:38.065Z,1.22
2019-05-29T12:35:08.492Z,1.30
2019-05-29T12:37:36.995Z,1.57
2019-05-29T12:40:29.306Z,1.52
2019-05-29T12:42:59.876Z,1.22
2019-05-29T12:45:28.257Z,1.22
2019-05-29T12:47:58.178Z,1.30
2019-05-29T12:50:27.816Z,1.45
2019-05-29T12:52:57.560Z,1.30
2019-05-29T12:55:26.319Z,1.30
2019-05-29T12:57:55.901Z,1.40
2019-05-29T13:00:25.002Z,1.87
2019-05-29T13:02:54.443Z,1.07
2019-05-29T13:05:24.947Z,1.35
2019-05-29T13:07:54.721Z,1.00
2019-05-29T13:10:30.476Z,1.40
2019-05-29T13:12:58.930Z,1.20
2019-05-29T13:15:24.838Z,1.30
2019-05-29T13:17:57.227Z,1.37
2019-05-29T13:20:24.606Z,1.30
2019-05-29T13:22:53.062Z,1.05
2019-05-29T13:25:21.985Z,1.10
2019-05-29T13:27:50.602Z,1.40
2019-05-29T13:30:19.682Z,1.10
2019-05-29T13:32:48.197Z,1.22
2019-05-29T13:35:21.776Z,1.20
2019-05-29T13:37:48.408Z,1.30
2019-05-29T13:40:18.451Z,1.10
2019-05-29T13:42:46.904Z,1.17
2019-05-29T13:45:18.447Z,1.20
2019-05-29T13:47:46.235Z,1.20
2019-05-29T13:50:16.408Z,1.07
2019-05-29T13:52:44.873Z,1.17
2019-05-29T13:55:14.066Z,0.98
2019-05-29T13:57:42.854Z,1.10
2019-05-29T14:00:32.469Z,1.30
2019-05-29T14:02:46.459Z,1.67
2019-05-29T14:05:16.178Z,1.20
2019-05-29T14:07:44.970Z,1.42
2019-05-29T14:10:15.078Z,1.22
2019-05-29T14:12:43.895Z,1.07
2019-05-29T14:15:14.421Z,1.22
2019-05-29T14:17:43.233Z,1.27
2019-05-29T14:20:13.042Z,1.10
2019-05-29T14:22:41.645Z,1.20
2019-05-29T14:25:11.643Z,1.10
2019-05-29T14:27:40.238Z,1.00
2019-05-29T14:30:10.546Z,0.90
2019-05-29T14:32:39.747Z,1.25
2019-05-29T14:35:10.811Z,1.07
2019-05-29T14:37:38.991Z,1.00
2019-05-29T14:40:09.872Z,0.95
2019-05-29T14:42:38.498Z,1.20
2019-05-29T14:45:08.410Z,1.22
2019-05-29T14:47:36.942Z,1.27
2019-05-29T14:50:11.161Z,1.20
2019-05-29T14:52:47.112Z,1.20
2019-05-29T14:55:18.384Z,1.20
2019-05-29T14:57:47.434Z,1.10
2019-05-29T15:00:24.820Z,1.10
2019-05-29T15:02:48.566Z,1.25
2019-05-29T15:05:18.309Z,1.10
2019-05-29T15:07:46.915Z,1.07
2019-05-29T15:10:27.466Z,1.30
2019-05-29T15:12:46.194Z,1.30
2019-05-29T15:15:16.762Z,1.30
2019-05-29T15:17:45.574Z,1.30
2019-05-29T15:20:16.745Z,1.20
2019-05-29T15:22:45.031Z,1.50
2019-05-29T15:25:23.608Z,2.25
2019-05-29T15:27:45.794Z,1.32
2019-05-29T15:30:19.926Z,1.20
2019-05-29T15:32:44.865Z,1.37
2019-05-29T15:35:17.619Z,1.27
2019-05-29T15:37:44.230Z,1.20
2019-05-29T15:40:13.197Z,1.40
2019-05-29T15:42:41.662Z,1.47
2019-05-29T15:45:13.869Z,1.35
2019-05-29T15:47:42.575Z,1.35
2019-05-29T15:50:13.634Z,1.60
2019-05-29T15:52:42.746Z,1.40
2019-05-29T15:55:24.888Z,1.60
2019-05-29T15:57:42.587Z,1.20
2019-05-29T16:00:13.727Z,1.25
2019-05-29T16:02:42.370Z,1.12
2019-05-29T16:05:12.915Z,1.30
2019-05-29T16:07:41.773Z,1.30
2019-05-29T16:10:14.422Z,1.37
2019-05-29T16:12:42.198Z,1.62
2019-05-29T16:15:15.172Z,1.40
2019-05-29T16:17:44.177Z,1.42
2019-05-29T16:20:14.599Z,1.50
2019-05-29T16:22:43.248Z,1.45
2019-05-29T16:25:12.796Z,1.30
2019-05-29T16:27:41.365Z,1.67
2019-05-29T16:30:13.438Z,1.47
2019-05-29T16:32:42.155Z,1.20
2019-05-29T16:35:13.056Z,1.37
2019-05-29T16:37:41.786Z,1.75
2019-05-29T16:40:13.705Z,1.35
2019-05-29T16:42:42.644Z,1.47
2019-05-29T16:45:12.362Z,1.60
2019-05-29T16:47:41.159Z,1.40
2019-05-29T16:50:10.833Z,1.20
2019-05-29T16:52:39.354Z,1.50
2019-05-29T16:55:08.361Z,1.22
2019-05-29T16:57:38.878Z,1.40
2019-05-29T17:00:10.344Z,1.50
2019-05-29T17:02:39.565Z,1.47
2019-05-29T17:05:08.871Z,1.60
2019-05-29T17:07:37.342Z,1.55
2019-05-29T17:10:07.358Z,1.55
2019-05-29T17:12:35.849Z,1.70
2019-05-29T17:15:07.688Z,1.30
2019-05-29T17:17:36.335Z,1.70
2019-05-29T17:20:08.626Z,1.60
2019-05-29T17:22:37.194Z,1.55
2019-05-29T17:25:06.637Z,1.40
2019-05-29T17:27:36.265Z,1.35
2019-05-29T17:30:07.271Z,1.60
2019-05-29T17:32:35.988Z,1.42
2019-05-29T17:35:07.102Z,1.70
2019-05-29T17:37:35.602Z,3.65
2019-05-29T17:40:07.069Z,1.70
2019-05-29T17:42:35.533Z,1.50
2019-05-29T17:45:07.172Z,1.37
2019-05-29T17:47:35.863Z,1.60
2019-05-29T17:50:07.037Z,1.32
2019-05-29T17:52:35.550Z,1.50
2019-05-29T17:55:07.701Z,1.55
2019-05-29T17:57:36.124Z,1.50
2019-05-29T18:00:11.102Z,1.55
2019-05-29T18:02:51.514Z,1.50
2019-05-29T18:05:10.404Z,1.60
2019-05-29T18:07:38.888Z,1.42
2019-05-29T18:10:08.236Z,1.85
2019-05-29T18:12:38.088Z,1.85
2019-05-29T18:15:07.659Z,1.60
2019-05-29T18:17:36.099Z,1.50
2019-05-29T18:20:07.668Z,1.52
2019-05-29T18:22:36.182Z,1.40
2019-05-29T18:25:06.734Z,1.37
2019-05-29T18:27:35.434Z,1.50
2019-05-29T18:30:07.405Z,1.40
2019-05-29T18:32:41.792Z,1.77
2019-05-29T18:35:10.797Z,2.08
2019-05-29T18:37:39.606Z,1.92
2019-05-29T18:40:12.247Z,1.65
2019-05-29T18:42:39.253Z,1.45
2019-05-29T18:45:20.305Z,1.60
2019-05-29T18:47:39.122Z,1.70
2019-05-29T18:50:29.545Z,1.90
2019-05-29T18:52:58.296Z,1.52
2019-05-29T18:55:27.033Z,1.80
2019-05-29T18:57:55.561Z,1.92
2019-05-29T19:00:43.660Z,1.80
2019-05-29T19:03:12.378Z,1.98
2019-05-29T19:05:43.716Z,2.17
2019-05-29T19:08:11.771Z,2.95
2019-05-29T19:10:40.559Z,2.50
2019-05-29T19:13:09.015Z,2.45
2019-05-29T19:15:37.524Z,2.35
2019-05-29T19:18:05.962Z,2.45
2019-05-29T19:20:34.708Z,2.90
2019-05-29T19:23:03.162Z,13.32
2019-05-29T19:25:32.934Z,20.12
2019-05-29T19:28:01.811Z,7.20
2019-05-29T19:30:30.958Z,5.45
2019-05-29T19:32:59.785Z,3.92
2019-05-29T19:35:29.513Z,3.90
2019-05-29T19:37:58.185Z,3.27
2019-05-29T19:40:28.018Z,2.90
2019-05-29T19:42:56.665Z,2.37
2019-05-29T19:45:28.585Z,2.70
2019-05-29T19:47:57.744Z,2.98
2019-05-29T19:50:26.754Z,2.72
2019-05-29T19:52:55.289Z,3.08
2019-05-29T19:55:23.718Z,3.12
2019-05-29T19:57:56.077Z,2.80
2019-05-29T20:00:22.971Z,2.87
2019-05-29T20:02:51.422Z,2.80
2019-05-29T20:05:20.126Z,2.98
2019-05-29T20:07:48.918Z,2.80
2019-05-29T20:10:17.818Z,3.00
2019-05-29T20:12:47.217Z,2.62
2019-05-29T20:15:16.750Z,2.62
2019-05-29T20:17:45.522Z,2.62
2019-05-29T20:20:14.299Z,3.05
2019-05-29T20:22:43.118Z,2.98
2019-05-29T20:25:13.829Z,2.60
2019-05-29T20:27:42.614Z,3.15
2019-05-29T20:30:19.174Z,3.00
2019-05-29T20:32:49.198Z,2.83
2019-05-29T20:35:17.842Z,2.60
2019-05-29T20:37:46.568Z,2.67
2019-05-29T20:40:15.601Z,3.58
2019-05-29T20:42:44.063Z,3.08
2019-05-29T20:45:12.675Z,3.55
2019-05-29T20:47:42.116Z,3.17
2019-05-29T20:50:13.443Z,3.40
2019-05-29T20:52:41.894Z,3.25
2019-05-29T20:55:11.291Z,3.47
2019-05-29T20:57:40.080Z,3.30
2019-05-29T21:00:11.082Z,3.52
2019-05-29T21:02:40.404Z,3.40
2019-05-29T21:05:09.592Z,4.08
2019-05-29T21:07:39.381Z,4.70
2019-05-29T21:10:08.675Z,3.42
2019-05-29T21:12:37.923Z,3.10
2019-05-29T21:15:08.501Z,3.27
2019-05-29T21:17:37.888Z,3.02
2019-05-29T21:20:08.040Z,2.80
2019-05-29T21:22:36.597Z,3.00
2019-05-29T21:25:12.432Z,3.22
2019-05-29T21:27:43.273Z,2.75
2019-05-29T21:30:09.678Z,3.08
2019-05-29T21:32:40.029Z,2.55
2019-05-29T21:35:09.025Z,2.60
2019-05-29T21:37:38.213Z,2.50
2019-05-29T21:40:07.342Z,2.45
2019-05-29T21:42:36.579Z,2.50
2019-05-29T21:45:06.399Z,2.98
2019-05-29T21:47:34.835Z,3.15
2019-05-29T21:50:04.937Z,3.10
2019-05-29T21:52:33.445Z,2.72
2019-05-29T21:55:01.968Z,2.65
2019-05-29T21:57:30.469Z,2.72
2019-05-29T21:59:58.937Z,3.37
2019-05-29T22:02:27.366Z,3.05
2019-05-29T22:04:56.138Z,3.08
2019-05-29T22:07:24.846Z,2.70
2019-05-29T22:09:54.474Z,2.62
2019-05-29T22:12:24.011Z,2.85
2019-05-29T22:14:53.345Z,2.98
2019-05-29T22:17:24.251Z,3.27
2019-05-29T22:19:52.869Z,2.95
2019-05-29T22:22:21.794Z,2.85
2019-05-29T22:24:51.076Z,3.15
2019-05-29T22:27:19.766Z,3.17
2019-05-29T22:29:48.210Z,3.20
2019-05-29T22:32:16.963Z,3.37
2019-05-29T22:34:45.798Z,2.90
2019-05-29T22:37:14.270Z,2.55
2019-05-29T22:39:43.034Z,3.15
2019-05-29T22:42:12.470Z,2.75
2019-05-29T22:44:40.917Z,3.05
2019-05-29T22:47:10.026Z,3.10
2019-05-29T22:49:38.501Z,3.08
2019-05-29T22:52:06.925Z,3.33
2019-05-29T22:54:35.385Z,3.15
2019-05-29T22:57:04.989Z,3.20
2019-05-29T22:59:33.781Z,2.85
2019-05-29T23:02:02.627Z,3.00
2019-05-29T23:04:31.166Z,3.25
2019-05-29T23:07:00.449Z,3.10
2019-05-29T23:09:29.345Z,2.95
2019-05-29T23:11:58.797Z,3.02
2019-05-29T23:14:27.235Z,2.77
2019-05-29T23:16:56.471Z,2.83
2019-05-29T23:19:25.037Z,2.95
2019-05-29T23:21:54.414Z,3.00
2019-05-29T23:24:22.935Z,2.92
2019-05-29T23:26:52.929Z,3.20
2019-05-29T23:29:21.610Z,3.00
2019-05-29T23:31:50.066Z,2.95
2019-05-29T23:34:18.807Z,3.08
2019-05-29T23:36:47.258Z,3.12
2019-05-29T23:39:15.704Z,3.25
2019-05-29T23:41:45.475Z,3.10
2019-05-29T23:44:14.911Z,3.00
2019-05-29T23:46:43.686Z,3.22
2019-05-29T23:49:12.126Z,3.25
2019-05-29T23:51:40.577Z,3.50
2019-05-29T23:54:09.358Z,3.10
2019-05-29T23:56:37.843Z,3.40
2019-05-29T23:59:06.577Z,3.55
